Norwich, VT (05055)

3:39 PM EST on March 04, 2015 (GMT -0500)
Montshire Museum | Change Station
CLOSE
Current Station
Personal Weather Station
Location: Norwich, VT
Elevation: 436 ft
Nearby Weather Stations

Elev 436 ft 43.70 °N, 72.31 °W | Updated 0 second ago

Partly Cloudy
Partly Cloudy
41.1 °F
Feels Like 39 °F
N
4.0
Wind Variable Wind from WSW
Gusts 12.0 mph

Today
High -- | Low -- °F
--% Chance of Precip.
Yesterday
High -- | Low -- °F
Precip. -- in
6:21 AM 5:41 PM
Waxing Gibbous, 99% visible
Pressure 29.72 in
Visibility 10.0 miles
Clouds Few 4100 ft
Windchill 39 °F
Dew Point 26 °F
Humidity 53%
Rainfall 0.15 in
Snow Depth Not available.
UV 2 out of 12
Pollen .40 out of 12
Air Quality Not available.
Flu Activity Not available.
METAR KLEB 041953Z 26011KT 10SM FEW041 06/M04 A2970 RMK AO2 SLP063 T00561044

More Conditions Fewer Conditions

Pressure 29.72 in
Visibility 10.0 miles
Clouds Few 4100 ft
Windchill 39 °F
Dew Point 26 °F
Humidity 53%
Rainfall 0.15 in
Snow Depth Not available.
UV 2 out of 12
Pollen .40 out of 12
Air Quality Not available.
Flu Activity Not available.
METAR KLEB 041953Z 26011KT 10SM FEW041 06/M04 A2970 RMK AO2 SLP063 T00561044

More Conditions Fewer Conditions

10-Day Weather Forecast

Almanac

Astronomy

Mar. 04, 2015 Rise Set
Actual Time
Civil Twilight
Nautical Twilight
Astronomical Twilight
Moon
Length of Visible Light
Length of Day
Tomorrow will be .
, % of the Moon is Illuminated

Today's Extremes

State Highs State Lows

Community

WunderPhotos

Upload Photos

1,802,575 photos uploaded!

WunderBlogs® & News

Nearby

Air Quality

  Air Quality AQ Index Pollutant
Not available.

Snow Depth

Station Depth Elevation

Earthquake Activity

City Distance Mag. Time & Date
Minimum magnitude displayed is 2.5.

Coastal Water Temperatures

Place Temperature

Nearby Weather Stations